createdAt,value
2019-03-03T00:01:29.132Z,10.90
2019-03-03T00:03:59.854Z,10.70
2019-03-03T00:06:30.936Z,10.70
2019-03-03T00:09:01.898Z,10.80
2019-03-03T00:11:34.537Z,10.90
2019-03-03T00:14:07.300Z,10.90
2019-03-03T00:16:38.382Z,11.00
2019-03-03T00:19:09.585Z,11.00
2019-03-03T00:21:40.783Z,11.00
2019-03-03T00:24:11.985Z,11.00
2019-03-03T00:26:42.945Z,11.00
2019-03-03T00:29:14.026Z,11.00
2019-03-03T00:31:45.228Z,10.90
2019-03-03T00:34:16.550Z,10.80
2019-03-03T00:37:05.512Z,10.80
2019-03-03T00:43:48.834Z,10.80
2019-03-03T00:46:36.597Z,10.70
2019-03-03T00:49:25.081Z,10.60
2019-03-03T00:52:06.883Z,10.50
2019-03-03T00:55:03.129Z,10.40
2019-03-03T00:57:51.962Z,10.50
2019-03-03T01:00:46.083Z,10.60
2019-03-03T01:03:21.974Z,10.70
2019-03-03T01:06:01.925Z,10.70
2019-03-03T01:09:04.447Z,10.60
2019-03-03T01:11:54.847Z,10.50
2019-03-03T01:14:43.216Z,10.50
2019-03-03T01:17:31.453Z,10.60
2019-03-03T01:20:24.612Z,10.70
2019-03-03T01:23:19.213Z,10.70
2019-03-03T01:25:50.303Z,10.80
2019-03-03T01:28:21.139Z,10.70
2019-03-03T01:30:52.218Z,10.70
2019-03-03T01:33:24.026Z,10.80
2019-03-03T01:35:54.863Z,10.90
2019-03-03T01:38:26.181Z,10.90
2019-03-03T01:40:57.385Z,10.80
2019-03-03T01:43:28.223Z,10.80
2019-03-03T01:45:59.067Z,10.80
2019-03-03T01:48:30.027Z,10.90
2019-03-03T01:51:01.947Z,10.80
2019-03-03T01:53:33.511Z,10.90
2019-03-03T01:56:04.712Z,10.90
2019-03-03T01:58:36.752Z,10.90
2019-03-03T02:01:08.078Z,11.00
2019-03-03T02:03:40.234Z,10.90
2019-03-03T02:06:11.438Z,10.90
2019-03-03T02:08:42.878Z,10.90
2019-03-03T02:11:14.318Z,11.00
2019-03-03T02:13:46.481Z,11.00
2019-03-03T02:16:18.402Z,11.00
2019-03-03T02:18:49.964Z,11.00
2019-03-03T02:21:21.163Z,11.00
2019-03-03T02:23:52.124Z,11.10
2019-03-03T02:26:23.325Z,11.00
2019-03-03T02:28:54.288Z,11.10
2019-03-03T02:31:25.248Z,11.10
2019-03-03T02:33:56.573Z,11.10
2019-03-03T02:36:27.654Z,11.10
2019-03-03T02:38:58.378Z,11.10
2019-03-03T02:41:29.094Z,11.10
2019-03-03T02:44:00.545Z,11.10
2019-03-03T02:46:31.501Z,11.10
2019-03-03T02:49:03.002Z,11.10
2019-03-03T02:51:34.739Z,11.10
2019-03-03T02:54:06.421Z,11.00
2019-03-03T02:56:37.621Z,11.00
2019-03-03T02:59:08.824Z,11.00
2019-03-03T03:01:54.068Z,10.90
2019-03-03T03:04:25.147Z,11.00
2019-03-03T03:07:12.909Z,11.00
2019-03-03T03:10:02.711Z,10.90
2019-03-03T03:12:52.870Z,10.90
2019-03-03T03:15:51.551Z,10.90
2019-03-03T03:18:47.716Z,10.90
2019-03-03T03:21:28.514Z,10.90
2019-03-03T03:24:18.562Z,10.90
2019-03-03T03:27:07.289Z,10.80
2019-03-03T03:29:46.282Z,10.90
2019-03-03T03:32:36.561Z,11.00
2019-03-03T03:35:15.445Z,11.00
2019-03-03T03:38:09.084Z,10.90
2019-03-03T03:40:47.007Z,10.90
2019-03-03T03:43:52.288Z,10.90
2019-03-03T03:46:40.647Z,10.90
2019-03-03T03:49:24.328Z,10.90
2019-03-03T03:52:12.722Z,10.90
2019-03-03T03:55:08.490Z,11.00
2019-03-03T03:58:04.897Z,10.80
2019-03-03T04:00:58.418Z,10.80
2019-03-03T04:03:48.227Z,10.80
2019-03-03T04:06:34.778Z,10.80
2019-03-03T04:09:41.501Z,10.80
2019-03-03T04:12:18.102Z,10.80
2019-03-03T04:15:08.026Z,10.70
2019-03-03T04:17:59.509Z,10.70
2019-03-03T04:20:49.305Z,10.70
2019-03-03T04:23:51.228Z,10.80
2019-03-03T04:26:59.149Z,10.80
2019-03-03T04:29:47.389Z,10.90
2019-03-03T04:32:37.789Z,11.00
2019-03-03T04:35:14.034Z,10.90
2019-03-03T04:38:03.475Z,10.90
2019-03-03T04:40:49.675Z,10.80
2019-03-03T04:43:57.356Z,10.80
2019-03-03T04:46:45.958Z,10.80
2019-03-03T04:49:43.199Z,10.80
2019-03-03T04:52:22.201Z,10.90
2019-03-03T04:55:03.843Z,11.00
2019-03-03T04:58:06.003Z,11.00
2019-03-03T05:00:55.009Z,10.90
2019-03-03T05:03:47.527Z,11.00
2019-03-03T05:06:30.967Z,11.00
2019-03-03T05:09:14.213Z,11.00
2019-03-03T05:12:40.090Z,11.10
2019-03-03T05:15:47.412Z,11.20
2019-03-03T05:18:31.693Z,11.10
2019-03-03T05:21:03.382Z,10.90
2019-03-03T05:23:34.218Z,11.00
2019-03-03T05:26:05.660Z,11.00
2019-03-03T05:28:36.979Z,11.10
2019-03-03T05:31:07.940Z,11.20
2019-03-03T05:33:39.022Z,11.10
2019-03-03T05:36:10.104Z,11.10
2019-03-03T05:38:40.705Z,11.10
2019-03-03T05:41:12.026Z,11.20
2019-03-03T05:43:42.988Z,11.20
2019-03-03T05:46:14.070Z,11.20
2019-03-03T05:48:45.511Z,11.30
2019-03-03T05:51:17.912Z,11.20
2019-03-03T05:53:48.990Z,11.10
2019-03-03T05:56:19.955Z,11.20
2019-03-03T05:58:50.916Z,11.20
2019-03-03T06:01:22.114Z,11.10
2019-03-03T06:03:52.838Z,11.10
2019-03-03T06:06:24.041Z,11.00
2019-03-03T06:08:54.757Z,11.00
2019-03-03T06:11:25.601Z,11.00
2019-03-03T06:13:56.800Z,11.10
2019-03-03T06:16:28.722Z,11.00
2019-03-03T06:18:59.687Z,11.10
2019-03-03T06:21:31.364Z,11.10
2019-03-03T06:24:02.688Z,11.10
2019-03-03T06:26:34.606Z,11.20
2019-03-03T06:29:05.453Z,11.30
2019-03-03T06:31:36.530Z,11.10
2019-03-03T06:34:08.934Z,11.10
2019-03-03T06:36:40.142Z,11.20
2019-03-03T06:39:11.216Z,11.30
2019-03-03T06:41:41.934Z,11.20
2019-03-03T06:44:12.834Z,11.30
2019-03-03T06:46:43.976Z,11.30
2019-03-03T06:49:15.661Z,11.20
2019-03-03T06:51:46.620Z,11.30
2019-03-03T06:54:17.706Z,11.30
2019-03-03T06:56:48.422Z,11.30
2019-03-03T06:59:19.866Z,11.30
2019-03-03T07:01:50.707Z,11.30
2019-03-03T07:04:22.267Z,11.20
2019-03-03T07:06:52.747Z,11.30
2019-03-03T07:09:24.189Z,11.30
2019-03-03T07:11:56.590Z,11.30
2019-03-03T07:14:27.554Z,11.30
2019-03-03T07:16:58.395Z,11.20
2019-03-03T07:19:29.123Z,11.30
2019-03-03T07:22:00.075Z,11.30
2019-03-03T07:24:31.878Z,11.30
2019-03-03T07:27:02.967Z,11.30
2019-03-03T07:29:34.041Z,11.20
2019-03-03T07:32:04.766Z,11.20
2019-03-03T07:34:35.720Z,11.20
2019-03-03T07:37:06.565Z,11.10
2019-03-03T07:40:01.647Z,11.10
2019-03-03T07:42:33.205Z,11.10
2019-03-03T07:45:04.694Z,11.10
2019-03-03T07:47:35.367Z,11.00
2019-03-03T07:52:44.010Z,11.10
2019-03-03T07:55:16.773Z,11.00
2019-03-03T07:57:47.499Z,11.00
2019-03-03T08:00:21.336Z,10.90
2019-03-03T08:02:52.535Z,10.90
2019-03-03T08:05:23.259Z,10.90
2019-03-03T08:07:54.581Z,10.90
2019-03-03T08:10:25.785Z,11.00
2019-03-03T08:12:57.221Z,11.00
2019-03-03T08:15:27.823Z,11.10
2019-03-03T08:17:58.783Z,11.10
2019-03-03T08:20:29.865Z,11.10
2019-03-03T08:23:01.794Z,11.10
2019-03-03T08:25:33.229Z,11.20
2019-03-03T08:28:05.629Z,11.20
2019-03-03T08:30:36.830Z,11.10
2019-03-03T08:33:07.678Z,11.10
2019-03-03T08:35:38.874Z,11.10
2019-03-03T08:38:10.313Z,11.20
2019-03-03T08:40:41.516Z,11.10
2019-03-03T08:43:34.436Z,11.00
2019-03-03T08:46:33.598Z,10.90
2019-03-03T08:49:32.282Z,10.90
2019-03-03T08:52:30.964Z,11.00
2019-03-03T08:55:24.364Z,11.00
2019-03-03T08:58:01.803Z,11.10
2019-03-03T09:00:46.212Z,11.20
2019-03-03T09:03:32.046Z,11.20
2019-03-03T09:06:34.098Z,11.30
2019-03-03T09:09:24.608Z,11.30
2019-03-03T09:12:20.774Z,11.20
2019-03-03T09:14:59.292Z,11.10
2019-03-03T09:17:42.254Z,11.10
2019-03-03T09:20:25.346Z,11.20
2019-03-03T09:23:12.617Z,11.30
2019-03-03T09:26:05.539Z,11.40
2019-03-03T09:28:51.621Z,11.40
2019-03-03T09:32:00.021Z,11.40
2019-03-03T09:34:49.823Z,11.40
2019-03-03T09:37:42.504Z,11.50
2019-03-03T09:40:31.706Z,11.60
2019-03-03T09:43:17.428Z,11.70
2019-03-03T09:46:06.031Z,11.70
2019-03-03T09:48:53.670Z,11.80
2019-03-03T09:51:33.872Z,11.80
2019-03-03T09:54:25.474Z,11.80
2019-03-03T09:57:15.873Z,11.80
2019-03-03T10:00:04.595Z,11.80
2019-03-03T10:02:48.396Z,11.90
2019-03-03T10:05:40.238Z,11.90
2019-03-03T10:08:26.683Z,11.90
2019-03-03T10:11:08.802Z,11.80
2019-03-03T10:13:50.731Z,11.80
2019-03-03T10:16:40.604Z,12.00
2019-03-03T10:19:36.406Z,12.00
2019-03-03T10:22:35.566Z,12.10
2019-03-03T10:25:33.291Z,12.20
2019-03-03T10:28:23.931Z,12.30
2019-03-03T10:31:27.291Z,12.30
2019-03-03T10:34:09.305Z,12.30
2019-03-03T10:37:08.577Z,12.40
2019-03-03T10:39:51.419Z,12.40
2019-03-03T10:42:38.151Z,12.40
2019-03-03T10:45:17.941Z,12.40
2019-03-03T10:48:10.379Z,12.40
2019-03-03T10:51:03.543Z,12.40
2019-03-03T10:53:43.504Z,12.50
2019-03-03T10:56:52.623Z,12.50
2019-03-03T10:59:33.547Z,12.50
2019-03-03T11:02:30.069Z,12.60
2019-03-03T11:05:15.668Z,12.60
2019-03-03T11:08:18.795Z,12.70
2019-03-03T11:11:12.311Z,12.70
2019-03-03T11:14:17.957Z,12.80
2019-03-03T11:17:06.555Z,12.80
2019-03-03T11:20:00.920Z,12.90
2019-03-03T11:22:51.317Z,12.90
2019-03-03T11:25:50.482Z,12.90
2019-03-03T11:28:47.000Z,12.90
2019-03-03T11:31:33.563Z,12.90
2019-03-03T11:34:17.843Z,13.00
2019-03-03T11:37:23.010Z,12.90
2019-03-03T11:40:24.809Z,13.00
2019-03-03T11:43:13.409Z,13.00
2019-03-03T11:46:12.214Z,13.00
2019-03-03T11:49:02.372Z,13.00
2019-03-03T11:51:52.416Z,13.00
2019-03-03T11:54:54.575Z,13.10
2019-03-03T11:57:45.597Z,13.10
2019-03-03T12:00:35.621Z,13.10
2019-03-03T12:03:31.540Z,13.00
2019-03-03T12:06:17.739Z,13.00
2019-03-03T12:09:10.908Z,13.00
2019-03-03T12:11:51.466Z,13.00
2019-03-03T12:14:41.143Z,13.10
2019-03-03T12:17:28.186Z,13.10
2019-03-03T12:20:21.342Z,13.20
2019-03-03T12:23:20.276Z,13.30
2019-03-03T12:26:17.753Z,13.30
2019-03-03T12:29:06.232Z,13.30
2019-03-03T12:31:56.658Z,13.30
2019-03-03T12:34:45.115Z,13.30
2019-03-03T12:37:25.796Z,13.30
2019-03-03T12:40:15.597Z,13.30
2019-03-03T12:43:04.083Z,13.40
2019-03-03T12:46:00.601Z,13.40
2019-03-03T12:48:54.599Z,13.40
2019-03-03T12:51:43.926Z,13.40
2019-03-03T12:54:42.846Z,13.40
2019-03-03T12:57:32.527Z,13.40
2019-03-03T13:00:15.967Z,13.40
2019-03-03T13:03:04.451Z,13.50
2019-03-03T13:06:03.614Z,13.50
2019-03-03T13:08:59.183Z,13.60
2019-03-03T13:11:50.979Z,13.60
2019-03-03T13:14:36.497Z,13.70
2019-03-03T13:17:36.136Z,13.70
2019-03-03T13:20:20.174Z,13.70
2019-03-03T13:23:21.258Z,13.80
2019-03-03T13:26:11.061Z,13.80
2019-03-03T13:29:00.514Z,13.80
2019-03-03T13:31:54.143Z,13.80
2019-03-03T13:34:37.465Z,13.80
2019-03-03T13:37:16.226Z,13.80
2019-03-03T13:40:06.773Z,13.80
2019-03-03T13:42:57.390Z,13.90
2019-03-03T13:45:33.750Z,14.00
2019-03-03T13:48:05.910Z,14.00
2019-03-03T13:50:37.352Z,14.00
2019-03-03T13:53:10.114Z,14.10
2019-03-03T13:55:41.197Z,14.10
2019-03-03T13:58:12.756Z,14.10
2019-03-03T14:00:43.839Z,14.20
2019-03-03T14:03:15.759Z,14.20
2019-03-03T14:05:47.442Z,14.20
2019-03-03T14:08:18.520Z,14.20
2019-03-03T14:10:51.162Z,14.20
2019-03-03T14:13:22.965Z,14.30
2019-03-03T14:15:54.045Z,14.20
2019-03-03T14:18:26.688Z,14.20
2019-03-03T14:20:58.013Z,14.30
2019-03-03T14:23:29.089Z,14.30
2019-03-03T14:26:00.050Z,14.30
2019-03-03T14:28:31.615Z,14.20
2019-03-03T14:31:02.815Z,14.30
2019-03-03T14:33:34.017Z,14.30
2019-03-03T14:36:04.979Z,14.40
2019-03-03T14:38:35.936Z,14.40
2019-03-03T14:41:07.258Z,14.40
2019-03-03T14:43:38.462Z,14.40
2019-03-03T14:46:09.421Z,14.40
2019-03-03T14:48:40.749Z,14.30
2019-03-03T14:51:11.705Z,14.40
2019-03-03T14:53:43.387Z,14.30
2019-03-03T14:56:13.867Z,14.30
2019-03-03T14:58:45.435Z,14.40
2019-03-03T15:01:17.589Z,14.30
2019-03-03T15:03:48.911Z,14.40
2019-03-03T15:06:24.417Z,14.40
2019-03-03T15:08:53.952Z,14.40
2019-03-03T15:11:25.513Z,14.50
2019-03-03T15:13:56.475Z,14.50
2019-03-03T15:16:27.922Z,14.50
2019-03-03T15:18:59.118Z,14.30
2019-03-03T15:21:30.200Z,14.30
2019-03-03T15:24:03.590Z,14.30
2019-03-03T15:26:33.925Z,14.40
2019-03-03T15:29:06.669Z,14.30
2019-03-03T15:31:39.563Z,14.40
2019-03-03T15:34:10.765Z,14.50
2019-03-03T15:36:41.487Z,14.50
2019-03-03T15:39:12.687Z,14.60
2019-03-03T15:41:43.769Z,14.60
2019-03-03T15:44:14.612Z,14.60
2019-03-03T15:46:46.413Z,14.60
2019-03-03T15:49:16.894Z,14.70
2019-03-03T15:51:48.215Z,14.70
2019-03-03T15:54:19.774Z,14.70
2019-03-03T15:56:50.737Z,14.70
2019-03-03T15:59:21.822Z,14.70
2019-03-03T16:01:52.779Z,14.70
2019-03-03T16:04:24.225Z,14.70
2019-03-03T16:06:55.422Z,14.70
2019-03-03T16:09:27.343Z,14.70
2019-03-03T16:11:58.835Z,14.60
2019-03-03T16:14:30.591Z,14.60
2019-03-03T16:17:02.026Z,14.60
2019-03-03T16:19:33.827Z,14.60
2019-03-03T16:22:05.270Z,14.60
2019-03-03T16:24:55.072Z,14.50
2019-03-03T16:27:26.031Z,14.60
2019-03-03T16:29:56.995Z,14.60
2019-03-03T16:32:28.073Z,14.70
2019-03-03T16:34:59.397Z,14.60
2019-03-03T16:37:30.239Z,14.60
2019-03-03T16:40:01.085Z,14.60
2019-03-03T16:42:32.159Z,14.60
2019-03-03T16:45:03.658Z,14.50
2019-03-03T16:47:35.043Z,14.60
2019-03-03T16:50:08.647Z,14.50
2019-03-03T16:52:41.525Z,14.60
2019-03-03T16:55:12.851Z,14.70
2019-03-03T16:57:44.173Z,14.70
2019-03-03T17:00:18.129Z,14.70
2019-03-03T17:02:49.816Z,14.70
2019-03-03T17:05:21.371Z,14.70
2019-03-03T17:07:53.053Z,14.70
2019-03-03T17:10:24.260Z,14.70
2019-03-03T17:12:55.697Z,14.70
2019-03-03T17:15:27.264Z,14.60
2019-03-03T17:17:58.576Z,14.60
2019-03-03T17:20:29.604Z,14.60
2019-03-03T17:23:01.108Z,14.70
2019-03-03T17:25:32.069Z,14.70
2019-03-03T17:28:03.750Z,14.80
2019-03-03T17:30:35.424Z,14.90
2019-03-03T17:33:06.751Z,14.90
2019-03-03T17:35:37.948Z,14.80
2019-03-03T17:38:09.390Z,14.90
2019-03-03T17:40:40.828Z,14.90
2019-03-03T17:43:11.911Z,14.90
2019-03-03T17:45:43.352Z,14.90
2019-03-03T17:48:15.275Z,14.90
2019-03-03T17:50:46.597Z,14.90
2019-03-03T17:53:17.796Z,14.90
2019-03-03T17:55:48.759Z,14.90
2019-03-03T17:58:19.718Z,14.90
2019-03-03T18:00:50.920Z,14.90
2019-03-03T18:03:23.322Z,14.90
2019-03-03T18:05:54.524Z,14.90
2019-03-03T18:08:25.845Z,14.90
2019-03-03T18:10:56.810Z,14.90
2019-03-03T18:13:27.768Z,14.90
2019-03-03T18:15:59.327Z,15.00
2019-03-03T18:18:30.050Z,15.00
2019-03-03T18:21:00.775Z,15.00
2019-03-03T18:23:31.853Z,15.00
2019-03-03T18:26:03.294Z,15.10
2019-03-03T18:28:35.095Z,15.10
2019-03-03T18:31:06.295Z,15.10
2019-03-03T18:33:37.618Z,15.00
2019-03-03T18:36:09.777Z,15.00
2019-03-03T18:38:40.979Z,15.00
2019-03-03T18:41:12.301Z,15.00
2019-03-03T18:43:44.822Z,15.00
2019-03-03T18:46:16.025Z,15.00
2019-03-03T18:48:48.184Z,15.00
2019-03-03T18:51:19.754Z,15.00
2019-03-03T18:53:51.079Z,15.00
2019-03-03T18:56:21.910Z,15.00
2019-03-03T18:58:52.630Z,15.00
2019-03-03T19:01:23.832Z,15.00
2019-03-03T19:03:54.795Z,15.00
2019-03-03T19:06:25.998Z,15.00
2019-03-03T19:08:57.796Z,15.00
2019-03-03T19:11:29.480Z,15.00
2019-03-03T19:14:00.676Z,15.00
2019-03-03T19:16:31.522Z,15.00
2019-03-03T19:19:02.842Z,15.00
2019-03-03T19:21:34.641Z,15.00
2019-03-03T19:24:05.964Z,15.00
2019-03-03T19:26:37.405Z,15.00
2019-03-03T19:29:08.485Z,15.00
2019-03-03T19:31:40.887Z,15.00
2019-03-03T19:34:12.329Z,15.00
2019-03-03T19:36:43.649Z,15.00
2019-03-03T19:39:14.857Z,14.90
2019-03-03T19:41:45.817Z,14.90
2019-03-03T19:44:16.535Z,14.90
2019-03-03T19:46:47.750Z,14.90
2019-03-03T19:49:18.815Z,14.90
2019-03-03T19:51:50.383Z,14.90
2019-03-03T19:54:21.586Z,14.90
2019-03-03T19:56:52.899Z,14.90
2019-03-03T19:59:23.862Z,14.90
2019-03-03T20:01:54.945Z,14.90
2019-03-03T20:04:26.868Z,14.80
2019-03-03T20:06:57.956Z,14.80
2019-03-03T20:09:29.028Z,14.80
2019-03-03T20:12:00.707Z,14.80
2019-03-03T20:14:31.791Z,14.80
2019-03-03T20:17:02.870Z,14.80
2019-03-03T20:19:34.196Z,14.70
2019-03-03T20:22:05.513Z,14.70
2019-03-03T20:24:37.196Z,14.70
2019-03-03T20:27:09.355Z,14.70
2019-03-03T20:29:41.038Z,14.60
2019-03-03T20:32:12.001Z,14.60
2019-03-03T20:34:43.207Z,14.60
2019-03-03T20:37:14.523Z,14.60
2019-03-03T20:39:45.601Z,14.60
2019-03-03T20:42:17.883Z,14.60
2019-03-03T20:44:50.044Z,14.60
2019-03-03T20:47:22.447Z,14.50
2019-03-03T20:49:53.768Z,14.50
2019-03-03T20:52:24.733Z,14.50
2019-03-03T20:54:58.211Z,14.50
2019-03-03T20:57:29.657Z,14.40
2019-03-03T21:00:00.853Z,14.40
2019-03-03T21:02:32.054Z,14.20
2019-03-03T21:05:03.253Z,14.30
2019-03-03T21:07:34.701Z,14.30
2019-03-03T21:10:05.900Z,14.40
2019-03-03T21:12:36.737Z,14.30
2019-03-03T21:15:08.662Z,14.40
2019-03-03T21:17:39.745Z,14.40
2019-03-03T21:20:12.265Z,14.50
2019-03-03T21:22:46.825Z,14.40
2019-03-03T21:25:18.391Z,14.50
2019-03-03T21:27:49.708Z,14.50
2019-03-03T21:30:22.826Z,14.50
2019-03-03T21:32:54.990Z,14.50
2019-03-03T21:35:26.066Z,14.50
2019-03-03T21:37:59.004Z,14.40
2019-03-03T21:40:30.035Z,14.40
2019-03-03T21:43:01.115Z,14.50
2019-03-03T21:45:32.315Z,14.50
2019-03-03T21:48:03.525Z,14.40
2019-03-03T21:50:36.159Z,14.40
2019-03-03T21:53:07.238Z,14.40
2019-03-03T21:55:38.683Z,14.40
2019-03-03T21:58:09.882Z,14.30
2019-03-03T22:00:41.325Z,14.40
2019-03-03T22:03:13.966Z,14.50
2019-03-03T22:05:45.287Z,14.40
2019-03-03T22:08:16.368Z,14.40
2019-03-03T22:10:47.450Z,14.50
2019-03-03T22:13:18.414Z,14.50
2019-03-03T22:15:49.497Z,14.50
2019-03-03T22:18:23.812Z,14.50
2019-03-03T22:20:55.732Z,14.40
2019-03-03T22:23:26.934Z,14.50
2019-03-03T22:25:58.016Z,14.50
2019-03-03T22:28:28.865Z,14.50
2019-03-03T22:30:59.942Z,14.50
2019-03-03T22:33:31.022Z,14.60
2019-03-03T22:36:02.228Z,14.60
2019-03-03T22:38:33.062Z,14.60
2019-03-03T22:41:04.146Z,14.60
2019-03-03T22:43:34.870Z,14.70
2019-03-03T22:46:06.188Z,14.70
2019-03-03T22:48:37.269Z,14.70
2019-03-03T22:51:08.229Z,14.70
2019-03-03T22:53:39.792Z,14.70
2019-03-03T22:56:10.994Z,14.70
2019-03-03T22:58:42.073Z,14.70
2019-03-03T23:01:24.434Z,14.70
2019-03-03T23:04:32.956Z,14.60
2019-03-03T23:07:31.517Z,14.60
2019-03-03T23:10:43.161Z,14.60
2019-03-03T23:13:50.481Z,14.60
2019-03-03T23:16:51.565Z,14.50
2019-03-03T23:19:48.564Z,14.40
2019-03-03T23:22:57.445Z,14.50
2019-03-03T23:25:52.167Z,14.50
2019-03-03T23:28:24.091Z,14.50
2019-03-03T23:30:56.009Z,14.50
2019-03-03T23:33:27.333Z,14.50
2019-03-03T23:35:58.891Z,14.50
2019-03-03T23:38:30.146Z,14.50
2019-03-03T23:41:01.294Z,14.60
2019-03-03T23:43:33.935Z,14.50
2019-03-03T23:46:04.778Z,14.50
2019-03-03T23:48:36.147Z,14.50
2019-03-03T23:51:06.941Z,14.50
2019-03-03T23:53:37.669Z,14.50
2019-03-03T23:56:08.864Z,14.50
2019-03-03T23:58:39.943Z,14.50
